sensor_id;sensor_type;location;lat;lon;timestamp;P1;durP1;ratioP1;P2;durP2;ratioP2
11427;SDS011;5770;44.504;11.346;2022-07-24T00:01:47;10.18;;;5.78;;
11427;SDS011;5770;44.504;11.346;2022-07-24T00:04:17;5.10;;;4.63;;
11427;SDS011;5770;44.504;11.346;2022-07-24T00:06:44;5.78;;;4.82;;
11427;SDS011;5770;44.504;11.346;2022-07-24T00:09:11;6.68;;;5.53;;
11427;SDS011;5770;44.504;11.346;2022-07-24T00:11:41;7.28;;;5.47;;
11427;SDS011;5770;44.504;11.346;2022-07-24T00:14:12;8.10;;;4.75;;
11427;SDS011;5770;44.504;11.346;2022-07-24T00:16:41;8.32;;;5.63;;
11427;SDS011;5770;44.504;11.346;2022-07-24T00:19:08;6.70;;;5.30;;
11427;SDS011;5770;44.504;11.346;2022-07-24T00:21:35;6.18;;;4.85;;
11427;SDS011;5770;44.504;11.346;2022-07-24T00:24:07;5.93;;;4.88;;
11427;SDS011;5770;44.504;11.346;2022-07-24T00:26:36;6.50;;;4.60;;
11427;SDS011;5770;44.504;11.346;2022-07-24T00:29:04;7.45;;;6.00;;
11427;SDS011;5770;44.504;11.346;2022-07-24T00:31:32;4.60;;;4.15;;
11427;SDS011;5770;44.504;11.346;2022-07-24T00:34:00;5.45;;;4.40;;
11427;SDS011;5770;44.504;11.346;2022-07-24T00:36:27;7.38;;;4.70;;
11427;SDS011;5770;44.504;11.346;2022-07-24T00:38:54;8.57;;;4.72;;
11427;SDS011;5770;44.504;11.346;2022-07-24T00:41:21;6.20;;;4.97;;
11427;SDS011;5770;44.504;11.346;2022-07-24T00:43:58;7.15;;;5.10;;
11427;SDS011;5770;44.504;11.346;2022-07-24T00:46:37;10.02;;;4.95;;
11427;SDS011;5770;44.504;11.346;2022-07-24T00:49:05;6.90;;;4.70;;
11427;SDS011;5770;44.504;11.346;2022-07-24T00:51:34;6.78;;;4.30;;
11427;SDS011;5770;44.504;11.346;2022-07-24T00:54:02;6.00;;;4.88;;
11427;SDS011;5770;44.504;11.346;2022-07-24T00:56:30;4.97;;;4.40;;
11427;SDS011;5770;44.504;11.346;2022-07-24T00:58:57;11.02;;;4.43;;
11427;SDS011;5770;44.504;11.346;2022-07-24T01:01:25;4.78;;;4.38;;
11427;SDS011;5770;44.504;11.346;2022-07-24T01:03:54;7.13;;;4.38;;
11427;SDS011;5770;44.504;11.346;2022-07-24T01:06:21;5.50;;;4.55;;
11427;SDS011;5770;44.504;11.346;2022-07-24T01:08:49;7.90;;;4.78;;
11427;SDS011;5770;44.504;11.346;2022-07-24T01:11:17;4.78;;;4.00;;
11427;SDS011;5770;44.504;11.346;2022-07-24T01:13:46;7.28;;;4.35;;
11427;SDS011;5770;44.504;11.346;2022-07-24T01:16:14;7.13;;;4.35;;
11427;SDS011;5770;44.504;11.346;2022-07-24T01:18:41;6.50;;;4.57;;
11427;SDS011;5770;44.504;11.346;2022-07-24T01:21:10;7.50;;;4.60;;
11427;SDS011;5770;44.504;11.346;2022-07-24T01:23:42;5.50;;;4.10;;
11427;SDS011;5770;44.504;11.346;2022-07-24T01:26:09;5.35;;;4.75;;
11427;SDS011;5770;44.504;11.346;2022-07-24T01:28:36;6.38;;;4.50;;
11427;SDS011;5770;44.504;11.346;2022-07-24T01:31:05;5.65;;;4.97;;
11427;SDS011;5770;44.504;11.346;2022-07-24T01:33:32;6.00;;;4.47;;
11427;SDS011;5770;44.504;11.346;2022-07-24T01:35:59;6.85;;;4.60;;
11427;SDS011;5770;44.504;11.346;2022-07-24T01:38:28;8.98;;;5.00;;
11427;SDS011;5770;44.504;11.346;2022-07-24T01:40:55;6.20;;;4.60;;
11427;SDS011;5770;44.504;11.346;2022-07-24T01:43:23;6.22;;;4.40;;
11427;SDS011;5770;44.504;11.346;2022-07-24T01:45:50;8.13;;;4.60;;
11427;SDS011;5770;44.504;11.346;2022-07-24T01:48:17;8.35;;;4.82;;
11427;SDS011;5770;44.504;11.346;2022-07-24T01:50:44;5.88;;;4.40;;
11427;SDS011;5770;44.504;11.346;2022-07-24T01:53:11;6.95;;;4.40;;
11427;SDS011;5770;44.504;11.346;2022-07-24T01:55:39;5.10;;;4.60;;
11427;SDS011;5770;44.504;11.346;2022-07-24T01:58:07;7.45;;;4.70;;
11427;SDS011;5770;44.504;11.346;2022-07-24T02:00:34;5.45;;;4.90;;
11427;SDS011;5770;44.504;11.346;2022-07-24T02:03:03;9.02;;;4.60;;
11427;SDS011;5770;44.504;11.346;2022-07-24T02:05:30;7.03;;;4.90;;
11427;SDS011;5770;44.504;11.346;2022-07-24T02:07:58;7.75;;;4.55;;
11427;SDS011;5770;44.504;11.346;2022-07-24T02:10:26;7.38;;;4.60;;
11427;SDS011;5770;44.504;11.346;2022-07-24T02:12:55;6.95;;;4.53;;
11427;SDS011;5770;44.504;11.346;2022-07-24T02:15:23;6.72;;;4.45;;
11427;SDS011;5770;44.504;11.346;2022-07-24T02:17:56;7.40;;;4.88;;
11427;SDS011;5770;44.504;11.346;2022-07-24T02:20:29;5.70;;;4.63;;
11427;SDS011;5770;44.504;11.346;2022-07-24T02:22:56;6.07;;;4.85;;
11427;SDS011;5770;44.504;11.346;2022-07-24T02:25:23;10.30;;;5.13;;
11427;SDS011;5770;44.504;11.346;2022-07-24T02:27:50;5.85;;;4.78;;
11427;SDS011;5770;44.504;11.346;2022-07-24T02:30:19;7.05;;;5.32;;
11427;SDS011;5770;44.504;11.346;2022-07-24T02:32:47;5.70;;;4.25;;
11427;SDS011;5770;44.504;11.346;2022-07-24T02:35:14;6.07;;;4.78;;
11427;SDS011;5770;44.504;11.346;2022-07-24T02:37:44;6.00;;;4.53;;
11427;SDS011;5770;44.504;11.346;2022-07-24T02:40:12;5.93;;;4.70;;
11427;SDS011;5770;44.504;11.346;2022-07-24T02:42:40;6.88;;;5.30;;
11427;SDS011;5770;44.504;11.346;2022-07-24T02:45:07;7.18;;;4.93;;
11427;SDS011;5770;44.504;11.346;2022-07-24T02:47:45;9.25;;;5.47;;
11427;SDS011;5770;44.504;11.346;2022-07-24T02:50:13;8.10;;;4.80;;
11427;SDS011;5770;44.504;11.346;2022-07-24T02:52:40;6.20;;;4.88;;
11427;SDS011;5770;44.504;11.346;2022-07-24T02:55:07;9.48;;;5.00;;
11427;SDS011;5770;44.504;11.346;2022-07-24T02:57:35;6.30;;;4.60;;
11427;SDS011;5770;44.504;11.346;2022-07-24T03:00:04;5.13;;;4.60;;
11427;SDS011;5770;44.504;11.346;2022-07-24T03:02:32;8.05;;;4.82;;
11427;SDS011;5770;44.504;11.346;2022-07-24T03:05:05;10.63;;;5.10;;
11427;SDS011;5770;44.504;11.346;2022-07-24T03:07:33;7.43;;;4.78;;
11427;SDS011;5770;44.504;11.346;2022-07-24T03:10:01;7.55;;;4.70;;
11427;SDS011;5770;44.504;11.346;2022-07-24T03:12:29;8.75;;;4.90;;
11427;SDS011;5770;44.504;11.346;2022-07-24T03:14:56;7.30;;;5.28;;
11427;SDS011;5770;44.504;11.346;2022-07-24T03:17:23;6.90;;;5.20;;
11427;SDS011;5770;44.504;11.346;2022-07-24T03:19:51;6.30;;;4.97;;
11427;SDS011;5770;44.504;11.346;2022-07-24T03:22:19;5.50;;;5.00;;
11427;SDS011;5770;44.504;11.346;2022-07-24T03:24:46;8.68;;;4.88;;
11427;SDS011;5770;44.504;11.346;2022-07-24T03:27:13;8.32;;;4.72;;
11427;SDS011;5770;44.504;11.346;2022-07-24T03:29:40;5.95;;;4.80;;
11427;SDS011;5770;44.504;11.346;2022-07-24T03:32:08;6.85;;;5.25;;
11427;SDS011;5770;44.504;11.346;2022-07-24T03:34:35;7.32;;;5.18;;
11427;SDS011;5770;44.504;11.346;2022-07-24T03:37:04;9.43;;;4.90;;
11427;SDS011;5770;44.504;11.346;2022-07-24T03:39:31;6.32;;;5.22;;
11427;SDS011;5770;44.504;11.346;2022-07-24T03:41:58;7.03;;;5.07;;
11427;SDS011;5770;44.504;11.346;2022-07-24T03:44:25;6.60;;;5.30;;
11427;SDS011;5770;44.504;11.346;2022-07-24T03:46:52;6.60;;;4.70;;
11427;SDS011;5770;44.504;11.346;2022-07-24T03:49:19;7.88;;;5.00;;
11427;SDS011;5770;44.504;11.346;2022-07-24T03:51:47;7.90;;;5.07;;
11427;SDS011;5770;44.504;11.346;2022-07-24T03:54:15;6.60;;;4.60;;
11427;SDS011;5770;44.504;11.346;2022-07-24T03:56:43;41.45;;;7.32;;
11427;SDS011;5770;44.504;11.346;2022-07-24T03:59:10;13.07;;;5.70;;
11427;SDS011;5770;44.504;11.346;2022-07-24T04:01:37;8.05;;;4.68;;
11427;SDS011;5770;44.504;11.346;2022-07-24T04:04:05;7.82;;;5.20;;
11427;SDS011;5770;44.504;11.346;2022-07-24T04:06:32;6.00;;;5.40;;
11427;SDS011;5770;44.504;11.346;2022-07-24T04:09:00;9.02;;;4.95;;
11427;SDS011;5770;44.504;11.346;2022-07-24T04:11:29;6.22;;;5.20;;
11427;SDS011;5770;44.504;11.346;2022-07-24T04:13:57;7.15;;;5.07;;
11427;SDS011;5770;44.504;11.346;2022-07-24T04:16:24;6.95;;;5.10;;
11427;SDS011;5770;44.504;11.346;2022-07-24T04:18:53;6.85;;;5.03;;
11427;SDS011;5770;44.504;11.346;2022-07-24T04:21:20;7.90;;;5.13;;
11427;SDS011;5770;44.504;11.346;2022-07-24T04:23:47;5.43;;;4.93;;
11427;SDS011;5770;44.504;11.346;2022-07-24T04:26:15;8.52;;;5.07;;
11427;SDS011;5770;44.504;11.346;2022-07-24T04:28:44;11.73;;;5.05;;
11427;SDS011;5770;44.504;11.346;2022-07-24T04:31:12;8.18;;;4.80;;
11427;SDS011;5770;44.504;11.346;2022-07-24T04:33:39;5.90;;;4.80;;
11427;SDS011;5770;44.504;11.346;2022-07-24T04:36:07;6.28;;;4.88;;
11427;SDS011;5770;44.504;11.346;2022-07-24T04:38:34;7.15;;;4.97;;
11427;SDS011;5770;44.504;11.346;2022-07-24T04:41:02;7.03;;;4.88;;
11427;SDS011;5770;44.504;11.346;2022-07-24T04:43:29;7.22;;;5.25;;
11427;SDS011;5770;44.504;11.346;2022-07-24T04:45:58;5.75;;;4.97;;
11427;SDS011;5770;44.504;11.346;2022-07-24T04:48:25;5.55;;;4.95;;
11427;SDS011;5770;44.504;11.346;2022-07-24T04:50:52;9.02;;;5.20;;
11427;SDS011;5770;44.504;11.346;2022-07-24T04:53:19;8.45;;;5.18;;
11427;SDS011;5770;44.504;11.346;2022-07-24T04:55:48;9.55;;;5.30;;
11427;SDS011;5770;44.504;11.346;2022-07-24T04:58:15;8.93;;;5.78;;
11427;SDS011;5770;44.504;11.346;2022-07-24T05:00:45;9.95;;;5.32;;
11427;SDS011;5770;44.504;11.346;2022-07-24T05:03:14;5.47;;;4.88;;
11427;SDS011;5770;44.504;11.346;2022-07-24T05:05:41;7.85;;;5.57;;
11427;SDS011;5770;44.504;11.346;2022-07-24T05:08:08;6.57;;;4.93;;
11427;SDS011;5770;44.504;11.346;2022-07-24T05:10:36;8.23;;;5.30;;
11427;SDS011;5770;44.504;11.346;2022-07-24T05:13:03;7.65;;;5.25;;
11427;SDS011;5770;44.504;11.346;2022-07-24T05:15:30;9.27;;;5.10;;
11427;SDS011;5770;44.504;11.346;2022-07-24T05:17:57;6.20;;;5.28;;
11427;SDS011;5770;44.504;11.346;2022-07-24T05:20:26;8.25;;;5.30;;
11427;SDS011;5770;44.504;11.346;2022-07-24T05:22:53;8.27;;;4.90;;
11427;SDS011;5770;44.504;11.346;2022-07-24T05:25:20;11.80;;;4.93;;
11427;SDS011;5770;44.504;11.346;2022-07-24T05:27:47;7.80;;;5.38;;
11427;SDS011;5770;44.504;11.346;2022-07-24T05:30:14;12.55;;;5.50;;
11427;SDS011;5770;44.504;11.346;2022-07-24T05:32:42;8.52;;;5.32;;
11427;SDS011;5770;44.504;11.346;2022-07-24T05:35:09;7.20;;;5.70;;
11427;SDS011;5770;44.504;11.346;2022-07-24T05:37:37;6.47;;;5.13;;
11427;SDS011;5770;44.504;11.346;2022-07-24T05:40:05;6.72;;;5.38;;
11427;SDS011;5770;44.504;11.346;2022-07-24T05:42:32;8.98;;;5.80;;
11427;SDS011;5770;44.504;11.346;2022-07-24T05:44:59;8.52;;;5.28;;
11427;SDS011;5770;44.504;11.346;2022-07-24T05:47:26;6.57;;;5.43;;
11427;SDS011;5770;44.504;11.346;2022-07-24T05:49:53;9.55;;;5.63;;
11427;SDS011;5770;44.504;11.346;2022-07-24T05:52:20;7.95;;;5.35;;
11427;SDS011;5770;44.504;11.346;2022-07-24T05:54:48;7.70;;;5.22;;
11427;SDS011;5770;44.504;11.346;2022-07-24T05:57:16;8.68;;;4.80;;
11427;SDS011;5770;44.504;11.346;2022-07-24T05:59:43;9.68;;;5.30;;
11427;SDS011;5770;44.504;11.346;2022-07-24T06:02:10;10.73;;;5.07;;
11427;SDS011;5770;44.504;11.346;2022-07-24T06:04:37;16.75;;;5.55;;
11427;SDS011;5770;44.504;11.346;2022-07-24T06:07:07;10.82;;;5.50;;
11427;SDS011;5770;44.504;11.346;2022-07-24T06:09:35;11.95;;;5.13;;
11427;SDS011;5770;44.504;11.346;2022-07-24T06:12:04;7.68;;;5.50;;
11427;SDS011;5770;44.504;11.346;2022-07-24T06:14:32;6.82;;;5.22;;
11427;SDS011;5770;44.504;11.346;2022-07-24T06:16:59;13.00;;;5.05;;
11427;SDS011;5770;44.504;11.346;2022-07-24T06:19:26;13.27;;;5.60;;
11427;SDS011;5770;44.504;11.346;2022-07-24T06:21:53;7.25;;;5.47;;
11427;SDS011;5770;44.504;11.346;2022-07-24T06:24:21;8.50;;;5.25;;
11427;SDS011;5770;44.504;11.346;2022-07-24T06:26:48;10.93;;;5.70;;
11427;SDS011;5770;44.504;11.346;2022-07-24T06:29:17;5.90;;;5.32;;
11427;SDS011;5770;44.504;11.346;2022-07-24T06:31:44;8.45;;;5.68;;
11427;SDS011;5770;44.504;11.346;2022-07-24T06:34:11;10.50;;;5.40;;
11427;SDS011;5770;44.504;11.346;2022-07-24T06:36:38;8.13;;;6.05;;
11427;SDS011;5770;44.504;11.346;2022-07-24T06:39:05;7.85;;;5.65;;
11427;SDS011;5770;44.504;11.346;2022-07-24T06:41:32;5.75;;;5.07;;
11427;SDS011;5770;44.504;11.346;2022-07-24T06:43:59;7.75;;;5.55;;
11427;SDS011;5770;44.504;11.346;2022-07-24T06:46:28;8.48;;;5.25;;
11427;SDS011;5770;44.504;11.346;2022-07-24T06:48:55;11.10;;;5.57;;
11427;SDS011;5770;44.504;11.346;2022-07-24T06:51:22;7.13;;;5.68;;
11427;SDS011;5770;44.504;11.346;2022-07-24T06:53:49;8.07;;;5.25;;
11427;SDS011;5770;44.504;11.346;2022-07-24T06:56:16;15.43;;;6.03;;
11427;SDS011;5770;44.504;11.346;2022-07-24T06:58:43;6.95;;;5.57;;
11427;SDS011;5770;44.504;11.346;2022-07-24T07:01:11;7.88;;;5.72;;
11427;SDS011;5770;44.504;11.346;2022-07-24T07:03:39;10.45;;;5.30;;
11427;SDS011;5770;44.504;11.346;2022-07-24T07:06:07;10.38;;;5.72;;
11427;SDS011;5770;44.504;11.346;2022-07-24T07:08:34;9.63;;;5.53;;
11427;SDS011;5770;44.504;11.346;2022-07-24T07:11:01;7.90;;;5.40;;
11427;SDS011;5770;44.504;11.346;2022-07-24T07:13:28;6.78;;;5.57;;
11427;SDS011;5770;44.504;11.346;2022-07-24T07:15:55;8.82;;;5.38;;
11427;SDS011;5770;44.504;11.346;2022-07-24T07:18:22;6.55;;;5.25;;
11427;SDS011;5770;44.504;11.346;2022-07-24T07:20:51;6.97;;;5.40;;
11427;SDS011;5770;44.504;11.346;2022-07-24T07:23:20;10.07;;;6.30;;
11427;SDS011;5770;44.504;11.346;2022-07-24T07:25:47;9.75;;;6.20;;
11427;SDS011;5770;44.504;11.346;2022-07-24T07:28:14;7.50;;;5.88;;
11427;SDS011;5770;44.504;11.346;2022-07-24T07:30:42;8.15;;;5.65;;
11427;SDS011;5770;44.504;11.346;2022-07-24T07:33:09;8.48;;;5.80;;
11427;SDS011;5770;44.504;11.346;2022-07-24T07:35:36;9.77;;;6.00;;
11427;SDS011;5770;44.504;11.346;2022-07-24T07:38:05;9.52;;;6.00;;
11427;SDS011;5770;44.504;11.346;2022-07-24T07:40:32;11.32;;;6.65;;
11427;SDS011;5770;44.504;11.346;2022-07-24T07:42:59;7.57;;;6.07;;
11427;SDS011;5770;44.504;11.346;2022-07-24T07:45:26;9.50;;;6.35;;
11427;SDS011;5770;44.504;11.346;2022-07-24T07:47:53;10.10;;;6.45;;
11427;SDS011;5770;44.504;11.346;2022-07-24T07:50:21;9.50;;;5.90;;
11427;SDS011;5770;44.504;11.346;2022-07-24T07:52:48;8.85;;;5.32;;
11427;SDS011;5770;44.504;11.346;2022-07-24T07:55:16;12.23;;;6.03;;
11427;SDS011;5770;44.504;11.346;2022-07-24T07:57:43;7.30;;;6.57;;
11427;SDS011;5770;44.504;11.346;2022-07-24T08:00:11;7.00;;;5.40;;
11427;SDS011;5770;44.504;11.346;2022-07-24T08:02:38;7.63;;;6.00;;
11427;SDS011;5770;44.504;11.346;2022-07-24T08:05:06;7.70;;;6.38;;
11427;SDS011;5770;44.504;11.346;2022-07-24T08:07:34;13.15;;;6.50;;
11427;SDS011;5770;44.504;11.346;2022-07-24T08:10:01;9.13;;;5.90;;
11427;SDS011;5770;44.504;11.346;2022-07-24T08:12:30;11.43;;;6.18;;
11427;SDS011;5770;44.504;11.346;2022-07-24T08:14:57;9.27;;;5.95;;
11427;SDS011;5770;44.504;11.346;2022-07-24T08:17:25;9.15;;;5.80;;
11427;SDS011;5770;44.504;11.346;2022-07-24T08:19:52;10.95;;;6.13;;
11427;SDS011;5770;44.504;11.346;2022-07-24T08:22:19;7.95;;;6.05;;
11427;SDS011;5770;44.504;11.346;2022-07-24T08:24:46;8.90;;;6.50;;
11427;SDS011;5770;44.504;11.346;2022-07-24T08:27:13;8.50;;;6.40;;
11427;SDS011;5770;44.504;11.346;2022-07-24T08:29:41;7.97;;;6.40;;
11427;SDS011;5770;44.504;11.346;2022-07-24T08:32:08;10.73;;;5.97;;
11427;SDS011;5770;44.504;11.346;2022-07-24T08:34:35;10.80;;;6.95;;
11427;SDS011;5770;44.504;11.346;2022-07-24T08:37:03;9.50;;;6.75;;
11427;SDS011;5770;44.504;11.346;2022-07-24T08:39:30;9.20;;;6.22;;
11427;SDS011;5770;44.504;11.346;2022-07-24T08:41:57;10.57;;;6.35;;
11427;SDS011;5770;44.504;11.346;2022-07-24T08:44:24;9.45;;;6.70;;
11427;SDS011;5770;44.504;11.346;2022-07-24T08:46:52;12.25;;;6.68;;
11427;SDS011;5770;44.504;11.346;2022-07-24T08:49:20;9.80;;;6.53;;
11427;SDS011;5770;44.504;11.346;2022-07-24T08:51:48;7.93;;;6.88;;
11427;SDS011;5770;44.504;11.346;2022-07-24T08:54:16;8.38;;;6.47;;
11427;SDS011;5770;44.504;11.346;2022-07-24T08:56:43;13.38;;;6.68;;
11427;SDS011;5770;44.504;11.346;2022-07-24T08:59:15;8.75;;;7.18;;
11427;SDS011;5770;44.504;11.346;2022-07-24T09:01:43;9.68;;;6.70;;
11427;SDS011;5770;44.504;11.346;2022-07-24T09:07:00;7.95;;;7.13;;
11427;SDS011;5770;44.504;11.346;2022-07-24T09:09:29;9.05;;;7.22;;
11427;SDS011;5770;44.504;11.346;2022-07-24T09:12:06;7.97;;;7.03;;
11427;SDS011;5770;44.504;11.346;2022-07-24T09:14:35;8.40;;;7.18;;
11427;SDS011;5770;44.504;11.346;2022-07-24T09:17:05;7.55;;;6.72;;
11427;SDS011;5770;44.504;11.346;2022-07-24T09:19:46;8.82;;;6.93;;
11427;SDS011;5770;44.504;11.346;2022-07-24T09:22:31;13.38;;;7.07;;
11427;SDS011;5770;44.504;11.346;2022-07-24T09:25:04;8.55;;;7.32;;
11427;SDS011;5770;44.504;11.346;2022-07-24T09:27:33;9.48;;;7.30;;
11427;SDS011;5770;44.504;11.346;2022-07-24T09:30:01;11.10;;;7.22;;
11427;SDS011;5770;44.504;11.346;2022-07-24T09:32:30;11.55;;;6.80;;
11427;SDS011;5770;44.504;11.346;2022-07-24T09:34:58;11.60;;;6.93;;
11427;SDS011;5770;44.504;11.346;2022-07-24T09:37:26;8.88;;;6.82;;
11427;SDS011;5770;44.504;11.346;2022-07-24T09:39:54;9.48;;;6.72;;
11427;SDS011;5770;44.504;11.346;2022-07-24T09:42:33;8.60;;;6.63;;
11427;SDS011;5770;44.504;11.346;2022-07-24T09:45:05;9.48;;;7.53;;
11427;SDS011;5770;44.504;11.346;2022-07-24T09:47:36;8.07;;;6.50;;
11427;SDS011;5770;44.504;11.346;2022-07-24T09:50:16;9.10;;;6.93;;
11427;SDS011;5770;44.504;11.346;2022-07-24T09:52:43;12.38;;;7.38;;
11427;SDS011;5770;44.504;11.346;2022-07-24T09:55:21;11.75;;;6.82;;
11427;SDS011;5770;44.504;11.346;2022-07-24T09:57:50;9.23;;;6.93;;
11427;SDS011;5770;44.504;11.346;2022-07-24T10:00:17;7.85;;;7.05;;
11427;SDS011;5770;44.504;11.346;2022-07-24T10:02:45;7.38;;;6.68;;
11427;SDS011;5770;44.504;11.346;2022-07-24T10:05:13;10.15;;;7.53;;
11427;SDS011;5770;44.504;11.346;2022-07-24T10:07:43;9.65;;;6.90;;
11427;SDS011;5770;44.504;11.346;2022-07-24T10:10:13;9.82;;;7.00;;
11427;SDS011;5770;44.504;11.346;2022-07-24T10:12:41;11.05;;;6.82;;
11427;SDS011;5770;44.504;11.346;2022-07-24T10:15:14;9.60;;;6.97;;
11427;SDS011;5770;44.504;11.346;2022-07-24T10:20:42;9.95;;;6.97;;
11427;SDS011;5770;44.504;11.346;2022-07-24T10:23:18;11.93;;;7.20;;
11427;SDS011;5770;44.504;11.346;2022-07-24T10:25:53;8.57;;;7.22;;
11427;SDS011;5770;44.504;11.346;2022-07-24T10:31:08;10.85;;;7.38;;
11427;SDS011;5770;44.504;11.346;2022-07-24T10:33:38;7.35;;;6.65;;
11427;SDS011;5770;44.504;11.346;2022-07-24T10:36:12;8.65;;;7.72;;
11427;SDS011;5770;44.504;11.346;2022-07-24T10:38:44;10.50;;;6.95;;
11427;SDS011;5770;44.504;11.346;2022-07-24T10:41:21;12.27;;;6.57;;
11427;SDS011;5770;44.504;11.346;2022-07-24T10:46:58;9.27;;;7.40;;
11427;SDS011;5770;44.504;11.346;2022-07-24T10:52:27;7.78;;;6.43;;
11427;SDS011;5770;44.504;11.346;2022-07-24T10:58:11;7.30;;;6.57;;
11427;SDS011;5770;44.504;11.346;2022-07-24T11:00:43;8.57;;;6.70;;
11427;SDS011;5770;44.504;11.346;2022-07-24T11:03:17;8.95;;;6.35;;
11427;SDS011;5770;44.504;11.346;2022-07-24T11:06:01;8.70;;;6.40;;
11427;SDS011;5770;44.504;11.346;2022-07-24T11:08:31;9.07;;;6.60;;
11427;SDS011;5770;44.504;11.346;2022-07-24T11:11:06;8.93;;;6.75;;
11427;SDS011;5770;44.504;11.346;2022-07-24T11:13:45;8.07;;;6.53;;
11427;SDS011;5770;44.504;11.346;2022-07-24T11:16:18;8.48;;;6.68;;
11427;SDS011;5770;44.504;11.346;2022-07-24T11:22:02;8.40;;;6.55;;
11427;SDS011;5770;44.504;11.346;2022-07-24T11:24:31;7.13;;;6.13;;
11427;SDS011;5770;44.504;11.346;2022-07-24T11:26:59;11.45;;;6.68;;
11427;SDS011;5770;44.504;11.346;2022-07-24T11:29:31;6.72;;;6.07;;
11427;SDS011;5770;44.504;11.346;2022-07-24T11:32:02;6.32;;;5.72;;
11427;SDS011;5770;44.504;11.346;2022-07-24T11:34:31;6.93;;;5.90;;
11427;SDS011;5770;44.504;11.346;2022-07-24T11:37:00;8.73;;;5.93;;
11427;SDS011;5770;44.504;11.346;2022-07-24T11:39:31;6.80;;;5.80;;
11427;SDS011;5770;44.504;11.346;2022-07-24T11:41:59;6.05;;;5.45;;
11427;SDS011;5770;44.504;11.346;2022-07-24T11:44:28;7.80;;;5.80;;
11427;SDS011;5770;44.504;11.346;2022-07-24T11:46:56;7.45;;;5.50;;
11427;SDS011;5770;44.504;11.346;2022-07-24T11:49:24;8.75;;;5.38;;
11427;SDS011;5770;44.504;11.346;2022-07-24T11:51:53;8.70;;;6.07;;
11427;SDS011;5770;44.504;11.346;2022-07-24T11:54:22;9.90;;;6.10;;
11427;SDS011;5770;44.504;11.346;2022-07-24T11:56:53;8.30;;;5.45;;
11427;SDS011;5770;44.504;11.346;2022-07-24T11:59:22;8.13;;;5.65;;
11427;SDS011;5770;44.504;11.346;2022-07-24T12:01:49;9.00;;;5.40;;
11427;SDS011;5770;44.504;11.346;2022-07-24T12:04:18;6.18;;;5.03;;
11427;SDS011;5770;44.504;11.346;2022-07-24T12:06:46;6.18;;;5.22;;
11427;SDS011;5770;44.504;11.346;2022-07-24T12:09:13;8.10;;;5.15;;
11427;SDS011;5770;44.504;11.346;2022-07-24T12:11:40;7.32;;;5.53;;
11427;SDS011;5770;44.504;11.346;2022-07-24T12:14:13;6.63;;;5.18;;
11427;SDS011;5770;44.504;11.346;2022-07-24T12:16:41;8.63;;;5.38;;
11427;SDS011;5770;44.504;11.346;2022-07-24T12:19:13;9.25;;;5.38;;
11427;SDS011;5770;44.504;11.346;2022-07-24T12:21:42;8.20;;;5.03;;
11427;SDS011;5770;44.504;11.346;2022-07-24T12:24:10;7.60;;;5.30;;
11427;SDS011;5770;44.504;11.346;2022-07-24T12:26:47;7.80;;;5.07;;
11427;SDS011;5770;44.504;11.346;2022-07-24T12:29:17;7.70;;;4.95;;
11427;SDS011;5770;44.504;11.346;2022-07-24T12:31:44;9.85;;;5.32;;
11427;SDS011;5770;44.504;11.346;2022-07-24T12:34:11;6.13;;;5.35;;
11427;SDS011;5770;44.504;11.346;2022-07-24T12:36:39;18.95;;;5.68;;
11427;SDS011;5770;44.504;11.346;2022-07-24T12:39:07;6.00;;;5.13;;
11427;SDS011;5770;44.504;11.346;2022-07-24T12:41:43;8.10;;;5.75;;
11427;SDS011;5770;44.504;11.346;2022-07-24T12:44:17;7.68;;;5.30;;
11427;SDS011;5770;44.504;11.346;2022-07-24T12:46:47;12.20;;;5.22;;
11427;SDS011;5770;44.504;11.346;2022-07-24T12:49:15;6.18;;;5.20;;
11427;SDS011;5770;44.504;11.346;2022-07-24T12:51:47;5.95;;;5.45;;
11427;SDS011;5770;44.504;11.346;2022-07-24T12:54:19;9.35;;;5.95;;
11427;SDS011;5770;44.504;11.346;2022-07-24T12:56:48;11.20;;;5.65;;
11427;SDS011;5770;44.504;11.346;2022-07-24T12:59:28;7.13;;;5.10;;
11427;SDS011;5770;44.504;11.346;2022-07-24T13:01:57;6.05;;;5.13;;
11427;SDS011;5770;44.504;11.346;2022-07-24T13:04:28;11.82;;;5.00;;
11427;SDS011;5770;44.504;11.346;2022-07-24T13:06:57;7.10;;;5.55;;
11427;SDS011;5770;44.504;11.346;2022-07-24T13:09:26;8.50;;;4.90;;
11427;SDS011;5770;44.504;11.346;2022-07-24T13:11:54;6.40;;;5.15;;
11427;SDS011;5770;44.504;11.346;2022-07-24T13:14:26;6.85;;;4.90;;
11427;SDS011;5770;44.504;11.346;2022-07-24T13:17:00;13.07;;;6.30;;
11427;SDS011;5770;44.504;11.346;2022-07-24T13:19:31;6.20;;;5.60;;
11427;SDS011;5770;44.504;11.346;2022-07-24T13:21:59;8.57;;;5.65;;
11427;SDS011;5770;44.504;11.346;2022-07-24T13:24:26;9.05;;;5.53;;
11427;SDS011;5770;44.504;11.346;2022-07-24T13:26:54;6.38;;;5.25;;
11427;SDS011;5770;44.504;11.346;2022-07-24T13:29:22;5.50;;;5.00;;
11427;SDS011;5770;44.504;11.346;2022-07-24T13:31:51;6.80;;;5.18;;
11427;SDS011;5770;44.504;11.346;2022-07-24T13:34:20;6.88;;;4.88;;
11427;SDS011;5770;44.504;11.346;2022-07-24T13:36:47;5.70;;;5.20;;
11427;SDS011;5770;44.504;11.346;2022-07-24T13:39:15;7.70;;;5.32;;
11427;SDS011;5770;44.504;11.346;2022-07-24T13:41:45;6.63;;;5.68;;
11427;SDS011;5770;44.504;11.346;2022-07-24T13:44:13;8.05;;;5.45;;
11427;SDS011;5770;44.504;11.346;2022-07-24T13:46:42;8.52;;;5.53;;
11427;SDS011;5770;44.504;11.346;2022-07-24T13:49:10;7.57;;;5.47;;
11427;SDS011;5770;44.504;11.346;2022-07-24T13:51:40;5.28;;;4.78;;
11427;SDS011;5770;44.504;11.346;2022-07-24T13:54:08;8.63;;;5.50;;
11427;SDS011;5770;44.504;11.346;2022-07-24T13:56:38;6.97;;;5.43;;
11427;SDS011;5770;44.504;11.346;2022-07-24T13:59:05;7.75;;;5.65;;
11427;SDS011;5770;44.504;11.346;2022-07-24T14:01:32;8.45;;;5.50;;
11427;SDS011;5770;44.504;11.346;2022-07-24T14:04:00;8.85;;;5.65;;
11427;SDS011;5770;44.504;11.346;2022-07-24T14:06:29;5.40;;;4.90;;
11427;SDS011;5770;44.504;11.346;2022-07-24T14:08:59;6.03;;;5.43;;
11427;SDS011;5770;44.504;11.346;2022-07-24T14:11:26;8.57;;;5.55;;
11427;SDS011;5770;44.504;11.346;2022-07-24T14:13:53;10.25;;;5.45;;
11427;SDS011;5770;44.504;11.346;2022-07-24T14:16:20;7.63;;;5.88;;
11427;SDS011;5770;44.504;11.346;2022-07-24T14:18:51;9.07;;;5.47;;
11427;SDS011;5770;44.504;11.346;2022-07-24T14:21:18;8.40;;;5.22;;
11427;SDS011;5770;44.504;11.346;2022-07-24T14:23:45;6.93;;;5.55;;
11427;SDS011;5770;44.504;11.346;2022-07-24T14:26:14;9.50;;;5.68;;
11427;SDS011;5770;44.504;11.346;2022-07-24T14:28:42;9.57;;;6.15;;
11427;SDS011;5770;44.504;11.346;2022-07-24T14:31:09;8.20;;;5.32;;
11427;SDS011;5770;44.504;11.346;2022-07-24T14:33:38;6.60;;;5.90;;
11427;SDS011;5770;44.504;11.346;2022-07-24T14:36:05;12.80;;;6.13;;
11427;SDS011;5770;44.504;11.346;2022-07-24T14:38:33;6.55;;;5.93;;
11427;SDS011;5770;44.504;11.346;2022-07-24T14:41:00;7.55;;;5.97;;
11427;SDS011;5770;44.504;11.346;2022-07-24T14:43:31;6.65;;;5.53;;
11427;SDS011;5770;44.504;11.346;2022-07-24T14:45:59;9.65;;;5.68;;
11427;SDS011;5770;44.504;11.346;2022-07-24T14:48:26;9.98;;;5.43;;
11427;SDS011;5770;44.504;11.346;2022-07-24T14:50:53;6.43;;;5.70;;
11427;SDS011;5770;44.504;11.346;2022-07-24T14:53:21;6.72;;;5.68;;
11427;SDS011;5770;44.504;11.346;2022-07-24T14:55:48;8.57;;;5.20;;
11427;SDS011;5770;44.504;11.346;2022-07-24T14:58:15;6.15;;;5.22;;
11427;SDS011;5770;44.504;11.346;2022-07-24T15:00:44;9.27;;;5.63;;
11427;SDS011;5770;44.504;11.346;2022-07-24T15:03:13;5.88;;;5.32;;
11427;SDS011;5770;44.504;11.346;2022-07-24T15:05:41;5.95;;;5.22;;
11427;SDS011;5770;44.504;11.346;2022-07-24T15:08:08;8.75;;;6.18;;
11427;SDS011;5770;44.504;11.346;2022-07-24T15:10:36;11.25;;;6.43;;
11427;SDS011;5770;44.504;11.346;2022-07-24T15:13:03;8.88;;;5.65;;
11427;SDS011;5770;44.504;11.346;2022-07-24T15:15:30;15.75;;;6.35;;